createdAt,value
2022-08-18T00:02:20.663Z,12.23
2022-08-18T00:04:53.196Z,12.00
2022-08-18T00:07:31.659Z,12.00
2022-08-18T00:10:01.604Z,11.80
2022-08-18T00:12:39.038Z,11.95
2022-08-18T00:15:08.744Z,11.50
2022-08-18T00:17:36.591Z,10.93
2022-08-18T00:20:07.175Z,10.95
2022-08-18T00:22:33.977Z,11.00
2022-08-18T00:25:01.155Z,11.30
2022-08-18T00:27:30.829Z,11.70
2022-08-18T00:30:00.727Z,11.75
2022-08-18T00:32:33.857Z,11.00
2022-08-18T00:35:09.994Z,11.13
2022-08-18T00:37:37.325Z,11.13
2022-08-18T00:40:04.701Z,11.75
2022-08-18T00:42:31.904Z,10.90
2022-08-18T00:45:05.196Z,10.95
2022-08-18T00:47:41.861Z,11.38
2022-08-18T00:50:27.933Z,10.85
2022-08-18T00:53:02.007Z,10.57
2022-08-18T00:55:30.789Z,11.50
2022-08-18T00:58:07.195Z,10.88
2022-08-18T01:00:34.342Z,10.30
2022-08-18T01:03:07.076Z,11.00
2022-08-18T01:05:40.936Z,11.55
2022-08-18T01:08:11.957Z,11.05
2022-08-18T01:10:40.578Z,11.70
2022-08-18T01:13:07.892Z,11.20
2022-08-18T01:15:38.531Z,10.85
2022-08-18T01:18:28.455Z,10.70
2022-08-18T01:21:27.106Z,10.52
2022-08-18T01:23:59.000Z,10.65
2022-08-18T01:26:28.528Z,11.60
2022-08-18T01:28:55.407Z,11.27
2022-08-18T01:31:38.774Z,10.95
2022-08-18T01:34:11.105Z,10.82
2022-08-18T01:36:40.724Z,11.48
2022-08-18T01:39:11.135Z,11.07
2022-08-18T01:41:38.560Z,10.82
2022-08-18T01:44:06.019Z,11.45
2022-08-18T01:46:35.578Z,11.65
2022-08-18T01:49:03.607Z,11.27
2022-08-18T01:51:38.914Z,11.45
2022-08-18T01:54:08.412Z,11.02
2022-08-18T01:56:36.714Z,10.40
2022-08-18T01:59:05.017Z,12.10
2022-08-18T02:01:36.544Z,12.43
2022-08-18T02:04:33.246Z,11.88
2022-08-18T02:06:54.414Z,11.95
2022-08-18T02:09:24.338Z,12.85
2022-08-18T02:11:52.933Z,11.85
2022-08-18T02:14:25.269Z,12.77
2022-08-18T02:17:01.265Z,13.75
2022-08-18T02:19:49.772Z,13.07
2022-08-18T02:22:21.577Z,13.20
2022-08-18T02:24:51.895Z,12.32
2022-08-18T02:27:18.700Z,11.57
2022-08-18T02:29:45.604Z,14.35
2022-08-18T02:32:12.742Z,12.65
2022-08-18T02:34:40.848Z,12.77
2022-08-18T02:37:10.837Z,13.10
2022-08-18T02:39:39.909Z,12.60
2022-08-18T02:42:07.330Z,12.70
2022-08-18T02:44:34.835Z,13.52
2022-08-18T02:47:02.002Z,13.20
2022-08-18T02:49:28.702Z,13.15
2022-08-18T02:51:55.436Z,14.43
2022-08-18T02:54:23.679Z,15.90
2022-08-18T02:56:52.000Z,14.65
2022-08-18T02:59:24.902Z,16.20
2022-08-18T03:01:55.539Z,14.45
2022-08-18T03:04:29.459Z,15.30
2022-08-18T03:06:59.810Z,15.70
2022-08-18T03:09:26.771Z,14.68
2022-08-18T03:11:54.580Z,14.63
2022-08-18T03:14:21.860Z,15.50
2022-08-18T03:16:54.807Z,16.20
2022-08-18T03:19:24.529Z,16.50
2022-08-18T03:21:51.297Z,15.77
2022-08-18T03:24:22.986Z,16.30
2022-08-18T03:26:51.708Z,15.73
2022-08-18T03:29:19.510Z,15.65
2022-08-18T03:31:48.802Z,15.85
2022-08-18T03:34:21.180Z,16.55
2022-08-18T03:36:50.510Z,17.95
2022-08-18T03:39:19.407Z,17.33
2022-08-18T03:42:00.225Z,17.05
2022-08-18T03:44:33.570Z,17.10
2022-08-18T03:47:03.095Z,16.90
2022-08-18T03:49:31.101Z,15.40
2022-08-18T03:52:00.847Z,15.65
2022-08-18T03:54:28.887Z,17.20
2022-08-18T03:56:55.998Z,17.23
2022-08-18T03:59:25.458Z,17.92
2022-08-18T04:01:55.019Z,17.95
2022-08-18T04:04:24.787Z,18.92
2022-08-18T04:06:55.672Z,16.50
2022-08-18T04:09:24.736Z,17.40
2022-08-18T04:11:54.391Z,15.75
2022-08-18T04:14:32.971Z,15.77
2022-08-18T04:17:00.151Z,16.73
2022-08-18T04:19:29.112Z,16.85
2022-08-18T04:21:57.913Z,17.10
2022-08-18T04:24:26.689Z,17.67
2022-08-18T04:26:57.580Z,18.38
2022-08-18T04:29:24.951Z,19.50
2022-08-18T04:31:51.986Z,18.48
2022-08-18T04:34:20.992Z,19.27
2022-08-18T04:36:48.364Z,18.42
2022-08-18T04:39:15.708Z,18.65
2022-08-18T04:41:43.842Z,18.17
2022-08-18T04:44:14.840Z,18.73
2022-08-18T04:46:46.253Z,18.27
2022-08-18T04:49:15.785Z,19.35
2022-08-18T04:52:38.310Z,19.13
2022-08-18T04:54:53.876Z,18.33
2022-08-18T04:57:23.489Z,19.25
2022-08-18T04:59:52.255Z,18.50
2022-08-18T05:02:20.757Z,16.98
2022-08-18T05:04:48.340Z,17.23
2022-08-18T05:07:19.255Z,18.23
2022-08-18T05:09:46.895Z,18.33
2022-08-18T05:12:14.917Z,18.40
2022-08-18T05:14:46.424Z,19.27
2022-08-18T05:19:44.492Z,18.33
2022-08-18T05:22:17.794Z,19.40
2022-08-18T05:24:46.063Z,19.05
2022-08-18T05:27:13.524Z,18.00
2022-08-18T05:29:41.703Z,18.02
2022-08-18T05:32:38.311Z,17.17
2022-08-18T05:35:36.236Z,17.55
2022-08-18T05:38:28.008Z,17.35
2022-08-18T05:43:52.082Z,17.67
2022-08-18T05:46:22.108Z,17.30
2022-08-18T05:48:49.777Z,16.08
2022-08-18T05:51:44.912Z,17.33
2022-08-18T05:54:32.205Z,15.93
2022-08-18T05:57:08.073Z,15.70
2022-08-18T05:59:41.156Z,15.02
2022-08-18T06:02:37.031Z,13.13
2022-08-18T06:05:12.232Z,12.95
2022-08-18T06:08:01.546Z,12.95
2022-08-18T06:10:28.490Z,14.35
2022-08-18T06:13:00.456Z,12.43
2022-08-18T06:15:39.840Z,11.38
2022-08-18T06:18:28.733Z,17.33
2022-08-18T06:21:25.574Z,19.33
2022-08-18T06:24:03.342Z,19.45
2022-08-18T06:26:49.433Z,18.35
2022-08-18T06:29:37.482Z,17.88
2022-08-18T06:32:14.128Z,16.25
2022-08-18T06:35:00.268Z,10.88
2022-08-18T06:37:34.491Z,12.27
2022-08-18T06:40:02.247Z,10.18
2022-08-18T06:42:31.794Z,8.90
2022-08-18T06:45:01.079Z,8.43
2022-08-18T06:47:40.867Z,9.15
2022-08-18T06:50:30.522Z,8.60
2022-08-18T06:53:00.267Z,8.90
2022-08-18T06:55:39.556Z,9.10
2022-08-18T06:58:27.068Z,9.85
2022-08-18T07:00:55.069Z,9.70
2022-08-18T07:03:46.153Z,10.30
2022-08-18T07:06:22.186Z,9.32
2022-08-18T07:08:51.442Z,7.80
2022-08-18T07:11:28.492Z,7.57
2022-08-18T07:14:16.435Z,6.70
2022-08-18T07:16:58.350Z,7.68
2022-08-18T07:19:29.760Z,6.72
2022-08-18T07:22:08.171Z,7.03
2022-08-18T07:24:46.948Z,6.32
2022-08-18T07:27:19.735Z,6.22
2022-08-18T07:30:24.948Z,7.03
2022-08-18T07:33:00.986Z,6.95
2022-08-18T07:35:40.403Z,6.40
2022-08-18T07:38:41.456Z,5.93
2022-08-18T07:41:24.117Z,6.20
2022-08-18T07:44:09.850Z,5.53
2022-08-18T07:47:00.451Z,6.32
2022-08-18T07:49:35.400Z,5.60
2022-08-18T07:52:43.935Z,5.35
2022-08-18T07:55:31.714Z,4.80
2022-08-18T07:58:29.283Z,3.80
2022-08-18T08:01:24.112Z,3.90
2022-08-18T08:04:07.082Z,4.10
2022-08-18T08:06:41.207Z,3.85
2022-08-18T08:09:31.258Z,3.80
2022-08-18T08:12:16.440Z,3.50
2022-08-18T08:14:49.792Z,3.45
2022-08-18T08:17:43.008Z,3.70
2022-08-18T08:20:17.335Z,3.65
2022-08-18T08:23:23.671Z,3.88
2022-08-18T08:26:21.856Z,3.80
2022-08-18T08:29:00.850Z,4.25
2022-08-18T08:31:50.452Z,3.70
2022-08-18T08:34:57.272Z,3.67
2022-08-18T08:37:47.066Z,4.15
2022-08-18T08:40:20.284Z,3.53
2022-08-18T08:42:55.438Z,3.15
2022-08-18T08:45:28.357Z,2.85
2022-08-18T08:48:09.289Z,2.90
2022-08-18T08:53:13.951Z,2.65
2022-08-18T08:55:52.476Z,2.55
2022-08-18T08:58:19.316Z,2.20
2022-08-18T09:00:48.254Z,2.53
2022-08-18T09:03:46.979Z,2.15
2022-08-18T09:06:39.245Z,2.00
2022-08-18T09:09:14.946Z,2.30
2022-08-18T09:11:51.831Z,2.25
2022-08-18T09:15:00.392Z,2.15
2022-08-18T09:17:58.367Z,2.00
2022-08-18T09:20:45.731Z,1.70
2022-08-18T09:23:40.726Z,1.90
2022-08-18T09:26:22.789Z,1.90
2022-08-18T09:29:06.008Z,1.80
2022-08-18T09:31:33.949Z,1.90
2022-08-18T09:34:10.560Z,1.75
2022-08-18T09:36:45.753Z,2.10
2022-08-18T09:39:56.819Z,1.92
2022-08-18T09:42:54.886Z,2.05
2022-08-18T09:45:33.723Z,1.95
2022-08-18T09:48:28.343Z,1.85
2022-08-18T09:50:57.416Z,2.10
2022-08-18T09:53:38.312Z,1.80
2022-08-18T09:56:06.705Z,2.33
2022-08-18T09:59:00.288Z,2.40
2022-08-18T10:01:30.295Z,2.30
2022-08-18T10:04:21.950Z,2.20
2022-08-18T10:07:22.011Z,2.10
2022-08-18T10:10:59.802Z,2.40
2022-08-18T10:15:48.678Z,2.05
2022-08-18T10:18:25.845Z,2.28
2022-08-18T10:21:12.481Z,2.40
2022-08-18T10:26:54.791Z,2.10
2022-08-18T10:29:28.556Z,2.30
2022-08-18T10:31:55.514Z,2.40
2022-08-18T10:37:46.174Z,2.10
2022-08-18T10:40:21.249Z,2.15
2022-08-18T10:43:45.223Z,2.25
2022-08-18T10:49:01.274Z,2.30
2022-08-18T10:51:59.660Z,2.30
2022-08-18T10:57:43.236Z,2.58
2022-08-18T11:00:20.313Z,2.83
2022-08-18T11:03:02.677Z,2.85
2022-08-18T11:05:42.897Z,2.60
2022-08-18T11:08:20.169Z,2.47
2022-08-18T11:11:27.339Z,2.60
2022-08-18T11:13:40.658Z,2.45
2022-08-18T11:16:30.853Z,2.50
2022-08-18T11:19:14.833Z,2.55
2022-08-18T11:21:51.482Z,2.10
2022-08-18T11:24:25.583Z,3.05
2022-08-18T11:27:17.241Z,2.60
2022-08-18T11:29:44.608Z,2.50
2022-08-18T11:32:24.197Z,2.28
2022-08-18T11:35:11.749Z,2.53
2022-08-18T11:37:52.329Z,2.53
2022-08-18T11:43:42.426Z,2.40
2022-08-18T11:46:30.116Z,2.67
2022-08-18T11:49:00.777Z,2.20
2022-08-18T11:51:32.314Z,2.15
2022-08-18T11:54:01.606Z,2.40
2022-08-18T11:56:38.556Z,2.45
2022-08-18T11:59:09.337Z,2.38
2022-08-18T12:01:51.478Z,2.10
2022-08-18T12:04:31.415Z,2.15
2022-08-18T12:07:14.977Z,2.65
2022-08-18T12:10:16.447Z,2.35
2022-08-18T12:12:52.053Z,2.90
2022-08-18T12:15:24.759Z,2.58
2022-08-18T12:17:53.603Z,2.80
2022-08-18T12:20:22.044Z,2.80
2022-08-18T12:22:56.890Z,2.38
2022-08-18T12:25:26.166Z,2.63
2022-08-18T12:27:54.015Z,2.28
2022-08-18T12:30:21.306Z,2.50
2022-08-18T12:32:56.316Z,2.60
2022-08-18T12:35:32.039Z,2.42
2022-08-18T12:38:03.181Z,2.45
2022-08-18T12:40:34.492Z,2.40
2022-08-18T12:43:01.672Z,2.63
2022-08-18T12:45:30.919Z,2.22
2022-08-18T12:47:59.616Z,2.47
2022-08-18T12:50:30.926Z,2.42
2022-08-18T12:53:00.395Z,2.65
2022-08-18T12:55:29.750Z,2.58
2022-08-18T12:57:56.591Z,2.40
2022-08-18T13:00:29.307Z,2.25
2022-08-18T13:02:57.455Z,2.33
2022-08-18T13:05:27.404Z,2.70
2022-08-18T13:08:04.514Z,2.20
2022-08-18T13:10:44.933Z,2.20
2022-08-18T13:13:17.872Z,2.50
2022-08-18T13:15:55.370Z,2.60
2022-08-18T13:18:27.177Z,2.35
2022-08-18T13:20:55.668Z,2.38
2022-08-18T13:23:25.202Z,2.15
2022-08-18T13:25:59.327Z,2.35
2022-08-18T13:28:36.063Z,2.60
2022-08-18T13:33:59.338Z,2.45
2022-08-18T13:36:44.393Z,2.45
2022-08-18T13:39:19.210Z,2.38
2022-08-18T13:41:48.998Z,2.65
2022-08-18T13:44:18.715Z,2.90
2022-08-18T13:46:48.078Z,2.72
2022-08-18T13:49:23.782Z,2.47
2022-08-18T13:51:58.051Z,2.38
2022-08-18T13:54:36.042Z,3.03
2022-08-18T13:57:04.242Z,2.60
2022-08-18T13:59:33.166Z,2.55
2022-08-18T14:02:05.907Z,2.55
2022-08-18T14:04:38.522Z,2.38
2022-08-18T14:07:11.003Z,2.15
2022-08-18T14:09:41.576Z,2.60
2022-08-18T14:12:23.402Z,2.60
2022-08-18T14:14:53.668Z,2.30
2022-08-18T14:17:22.912Z,2.38
2022-08-18T14:20:21.871Z,2.45
2022-08-18T14:23:22.047Z,2.72
2022-08-18T14:26:09.891Z,2.80
2022-08-18T14:28:38.250Z,2.80
2022-08-18T14:31:08.127Z,2.50
2022-08-18T14:33:51.879Z,3.10
2022-08-18T14:36:29.459Z,2.63
2022-08-18T14:38:58.476Z,2.80
2022-08-18T14:41:27.605Z,2.85
2022-08-18T14:44:13.227Z,2.95
2022-08-18T14:46:54.495Z,2.70
2022-08-18T14:49:28.535Z,2.60
2022-08-18T14:51:57.825Z,2.80
2022-08-18T14:54:28.776Z,2.70
2022-08-18T14:56:58.446Z,2.63
2022-08-18T14:59:37.610Z,2.85
2022-08-18T15:02:06.646Z,2.55
2022-08-18T15:04:55.857Z,2.60
2022-08-18T15:07:24.994Z,2.95
2022-08-18T15:10:15.062Z,2.60
2022-08-18T15:12:42.207Z,2.60
2022-08-18T15:15:13.057Z,2.95
2022-08-18T15:17:44.702Z,2.90
2022-08-18T15:20:17.867Z,2.60
2022-08-18T15:23:04.476Z,2.67
2022-08-18T15:25:43.880Z,2.72
2022-08-18T15:28:23.770Z,2.88
2022-08-18T15:31:16.781Z,2.78
2022-08-18T15:33:39.694Z,2.78
2022-08-18T15:36:16.247Z,2.67
2022-08-18T15:38:43.239Z,3.30
2022-08-18T15:41:10.196Z,2.70
2022-08-18T15:43:42.019Z,2.72
2022-08-18T15:46:16.635Z,2.90
2022-08-18T15:48:43.791Z,2.97
2022-08-18T15:51:12.083Z,2.80
2022-08-18T15:53:44.889Z,2.70
2022-08-18T15:56:14.878Z,2.72
2022-08-18T15:58:42.009Z,2.45
2022-08-18T16:01:29.706Z,2.80
2022-08-18T16:03:57.948Z,2.90
2022-08-18T16:06:27.847Z,2.72
2022-08-18T16:08:59.700Z,3.17
2022-08-18T16:11:29.789Z,2.50
2022-08-18T16:14:01.103Z,2.67
2022-08-18T16:19:05.877Z,2.80
2022-08-18T16:21:33.227Z,2.67
2022-08-18T16:24:00.078Z,2.50
2022-08-18T16:26:26.919Z,2.63
2022-08-18T16:28:59.159Z,2.67
2022-08-18T16:31:28.433Z,2.70
2022-08-18T16:33:57.284Z,2.33
2022-08-18T16:36:26.662Z,2.70
2022-08-18T16:38:56.165Z,2.55
2022-08-18T16:41:26.488Z,2.40
2022-08-18T16:43:53.751Z,2.30
2022-08-18T16:46:25.977Z,2.45
2022-08-18T16:48:54.237Z,2.22
2022-08-18T16:51:23.665Z,2.70
2022-08-18T16:53:52.993Z,2.50
2022-08-18T16:56:30.149Z,2.35
2022-08-18T16:59:16.556Z,2.40
2022-08-18T17:02:01.865Z,2.50
2022-08-18T17:04:34.620Z,2.80
2022-08-18T17:07:04.863Z,2.40
2022-08-18T17:09:33.183Z,2.97
2022-08-18T17:12:00.899Z,2.67
2022-08-18T17:14:31.106Z,2.63
2022-08-18T17:17:00.297Z,2.60
2022-08-18T17:19:30.147Z,2.80
2022-08-18T17:21:57.225Z,2.72
2022-08-18T17:24:31.039Z,2.55
2022-08-18T17:27:26.016Z,2.20
2022-08-18T17:29:58.353Z,2.55
2022-08-18T17:32:48.841Z,3.10
2022-08-18T17:35:39.181Z,2.55
2022-08-18T17:38:19.073Z,2.50
2022-08-18T17:40:49.465Z,3.03
2022-08-18T17:43:22.698Z,3.08
2022-08-18T17:45:55.728Z,3.05
2022-08-18T17:48:28.594Z,3.10
2022-08-18T17:51:22.467Z,3.17
2022-08-18T17:53:49.568Z,3.00
2022-08-18T17:56:21.096Z,2.78
2022-08-18T17:59:45.490Z,3.25
2022-08-18T18:02:29.242Z,2.97
2022-08-18T18:05:02.973Z,3.38
2022-08-18T18:07:36.630Z,3.03
2022-08-18T18:10:22.327Z,3.13
2022-08-18T18:13:08.699Z,3.35
2022-08-18T18:15:40.781Z,3.47
2022-08-18T18:18:23.668Z,2.90
2022-08-18T18:21:06.085Z,3.20
2022-08-18T18:23:41.332Z,3.10
2022-08-18T18:26:26.085Z,2.80
2022-08-18T18:29:11.306Z,3.10
2022-08-18T18:32:01.528Z,3.47
2022-08-18T18:34:36.566Z,3.17
2022-08-18T18:37:06.403Z,3.33
2022-08-18T18:39:36.660Z,3.25
2022-08-18T18:42:19.087Z,3.10
2022-08-18T18:44:54.400Z,3.70
2022-08-18T18:48:00.523Z,3.80
2022-08-18T18:51:11.098Z,3.50
2022-08-18T18:54:01.121Z,3.45
2022-08-18T18:56:44.389Z,3.47
2022-08-18T18:59:48.987Z,3.70
2022-08-18T19:02:33.435Z,3.95
2022-08-18T19:05:18.018Z,4.00
2022-08-18T19:08:33.152Z,3.80
2022-08-18T19:11:10.824Z,4.38
2022-08-18T19:13:46.559Z,4.10
2022-08-18T19:16:26.816Z,3.95
2022-08-18T19:19:37.325Z,4.10
2022-08-18T19:22:03.698Z,4.00
2022-08-18T19:24:38.836Z,4.07
2022-08-18T19:27:10.943Z,3.90
2022-08-18T19:29:43.053Z,3.80
2022-08-18T19:32:17.871Z,4.57
2022-08-18T19:34:52.637Z,4.03
2022-08-18T19:37:40.414Z,4.65
2022-08-18T19:40:27.253Z,4.18
2022-08-18T19:43:03.492Z,4.53
2022-08-18T19:45:59.282Z,4.93
2022-08-18T19:48:36.699Z,5.40
2022-08-18T19:51:17.665Z,5.68
2022-08-18T19:53:52.646Z,5.30
2022-08-18T19:56:34.103Z,5.55
2022-08-18T19:59:35.975Z,6.80
2022-08-18T20:02:25.402Z,6.90
2022-08-18T20:05:00.911Z,6.45
2022-08-18T20:07:40.152Z,5.43
2022-08-18T20:10:42.109Z,4.18
2022-08-18T20:13:43.211Z,4.00
2022-08-18T20:16:43.333Z,4.30
2022-08-18T20:19:42.653Z,3.55
2022-08-18T20:22:21.906Z,3.65
2022-08-18T20:25:05.721Z,3.92
2022-08-18T20:30:50.633Z,4.22
2022-08-18T20:33:25.743Z,3.95
2022-08-18T20:36:11.936Z,3.83
2022-08-18T20:38:45.608Z,4.30
2022-08-18T20:41:33.882Z,4.13
2022-08-18T20:44:28.787Z,4.43
2022-08-18T20:47:15.236Z,3.75
2022-08-18T20:50:14.287Z,4.18
2022-08-18T20:52:49.511Z,3.88
2022-08-18T20:55:30.860Z,4.38
2022-08-18T20:58:10.045Z,4.03
2022-08-18T21:00:41.266Z,4.28
2022-08-18T21:03:12.990Z,4.22
2022-08-18T21:05:45.248Z,4.55
2022-08-18T21:08:16.327Z,4.78
2022-08-18T21:13:46.191Z,4.72
2022-08-18T21:16:38.635Z,4.70
2022-08-18T21:19:18.111Z,4.75
2022-08-18T21:21:49.330Z,4.93
2022-08-18T21:24:40.354Z,4.70
2022-08-18T21:27:11.412Z,4.78
2022-08-18T21:29:49.041Z,4.95
2022-08-18T21:32:22.646Z,5.43
2022-08-18T21:34:50.090Z,5.13
2022-08-18T21:37:19.225Z,5.22
2022-08-18T21:39:55.587Z,5.40
2022-08-18T21:42:27.639Z,5.30
2022-08-18T21:45:00.496Z,5.72
2022-08-18T21:47:33.388Z,6.03
2022-08-18T21:50:01.647Z,5.90
2022-08-18T21:52:30.518Z,5.85
2022-08-18T21:55:04.421Z,5.95
2022-08-18T21:57:47.879Z,6.55
2022-08-18T22:00:34.499Z,6.10
2022-08-18T22:03:17.088Z,6.60
2022-08-18T22:05:58.624Z,6.30
2022-08-18T22:08:28.686Z,6.50
2022-08-18T22:12:02.181Z,6.50
2022-08-18T22:14:54.391Z,6.72
2022-08-18T22:17:30.353Z,7.10
2022-08-18T22:20:34.711Z,7.22
2022-08-18T22:23:31.628Z,6.90
2022-08-18T22:26:27.687Z,6.95
2022-08-18T22:29:13.105Z,6.70
2022-08-18T22:31:45.062Z,6.35
2022-08-18T22:34:16.450Z,6.25
2022-08-18T22:39:25.591Z,6.10
2022-08-18T22:41:52.786Z,5.75
2022-08-18T22:44:19.716Z,6.35
2022-08-18T22:46:46.577Z,6.15
2022-08-18T22:49:13.339Z,7.25
2022-08-18T22:51:40.085Z,6.30
2022-08-18T22:54:09.844Z,5.88
2022-08-18T22:56:38.534Z,6.07
2022-08-18T22:59:14.119Z,6.40
2022-08-18T23:01:45.622Z,6.20
2022-08-18T23:04:12.608Z,6.55
2022-08-18T23:06:39.420Z,6.10
2022-08-18T23:09:06.380Z,6.50
2022-08-18T23:11:35.780Z,6.10
2022-08-18T23:14:03.111Z,6.10
2022-08-18T23:16:30.374Z,6.35
2022-08-18T23:19:03.576Z,6.32
2022-08-18T23:24:04.675Z,6.18
2022-08-18T23:26:33.976Z,6.68
2022-08-18T23:29:01.058Z,7.55
2022-08-18T23:31:27.843Z,7.45
2022-08-18T23:33:54.826Z,9.85
2022-08-18T23:36:21.755Z,10.25
2022-08-18T23:38:48.520Z,11.00
2022-08-18T23:41:16.403Z,10.38
2022-08-18T23:43:43.455Z,10.68
2022-08-18T23:46:23.865Z,11.25
2022-08-18T23:48:52.157Z,11.55
2022-08-18T23:51:29.430Z,11.32
2022-08-18T23:54:03.244Z,12.77
2022-08-18T23:56:31.761Z,13.98
2022-08-18T23:58:59.493Z,14.65
